UAL94 KLAX-EGLL
Flight info
| Callsign | UAL94 |
|---|---|
| Flight time | N/A |
| Altitude | 33000 |
| Route | OSHNN1 BEALE Q842 WINEN DCT MLF J107 DPR DCT KP09A DCT HML DCT 55N090W/N0483F350 60N080W DCT TEFFO DCT BERUS/M084F350 DCT EMBOK DCT 63N050W 6230N04000W/M084F370 61N030W 59N020W DCT AGORI/N0485F370 DCT OSBOX DCT MIMKU DCT KELLY L10 WAL UY53 NUGRA |
| Aircraft | B77W/H-SDE1E2E3FGHIJ2J3J4J5M1RWXY/LB1D1 |
Departure
| Time | 2026-04-26 05:42 |
|---|---|
| Airport | Los Angeles International Airport (KLAX) |
Arrival
| Time | N/A |
|---|---|
| Airport | London Heathrow Airport (EGLL) |
| Time | Latitude | Longitude | Altitude | Speed | Heading |
|---|---|---|---|---|---|
| 2026-04-26 05:20 | 33.94021 | -118.41076 | 100 ft | 0 kts | 83° |
| 2026-04-26 05:21 | 33.94021 | -118.41069 | 100 ft | 0 kts | 83° |
| 2026-04-26 05:27 | 33.94021 | -118.41072 | 100 ft | 1 kts | 83° |
| 2026-04-26 05:27 | 33.94019 | -118.41092 | 99 ft | 3 kts | 83° |
| 2026-04-26 05:28 | 33.94017 | -118.41116 | 98 ft | 3 kts | 83° |
| 2026-04-26 05:28 | 33.94014 | -118.41140 | 98 ft | 3 kts | 83° |
| 2026-04-26 05:28 | 33.94013 | -118.41163 | 97 ft | 3 kts | 106° |
| 2026-04-26 05:28 | 33.94021 | -118.41181 | 98 ft | 3 kts | 153° |
| 2026-04-26 05:29 | 33.94033 | -118.41186 | 99 ft | 1 kts | 173° |
| 2026-04-26 05:29 | 33.94050 | -118.41188 | 99 ft | 3 kts | 173° |
| 2026-04-26 05:29 | 33.94065 | -118.41190 | 99 ft | 1 kts | 173° |
| 2026-04-26 05:29 | 33.94067 | -118.41191 | 99 ft | 0 kts | 173° |
| 2026-04-26 05:32 | 33.94066 | -118.41191 | 99 ft | 2 kts | 173° |
| 2026-04-26 05:32 | 33.93988 | -118.41179 | 100 ft | 17 kts | 173° |
| 2026-04-26 05:32 | 33.93838 | -118.41158 | 104 ft | 12 kts | 173° |
| 2026-04-26 05:32 | 33.93773 | -118.41109 | 106 ft | 12 kts | 107° |
| 2026-04-26 05:33 | 33.93778 | -118.40987 | 106 ft | 19 kts | 83° |
| 2026-04-26 05:33 | 33.93794 | -118.40829 | 107 ft | 19 kts | 83° |
| 2026-04-26 05:33 | 33.93810 | -118.40670 | 107 ft | 19 kts | 83° |
| 2026-04-26 05:33 | 33.93821 | -118.40565 | 107 ft | 19 kts | 83° |
| 2026-04-26 05:34 | 33.93837 | -118.40406 | 108 ft | 19 kts | 83° |
| 2026-04-26 05:34 | 33.93853 | -118.40248 | 109 ft | 19 kts | 83° |
| 2026-04-26 05:34 | 33.93869 | -118.40089 | 109 ft | 19 kts | 83° |
| 2026-04-26 05:34 | 33.93885 | -118.39931 | 109 ft | 19 kts | 83° |
| 2026-04-26 05:35 | 33.93901 | -118.39772 | 108 ft | 19 kts | 83° |
| 2026-04-26 05:35 | 33.93923 | -118.39563 | 108 ft | 19 kts | 83° |
| 2026-04-26 05:35 | 33.93934 | -118.39456 | 107 ft | 19 kts | 83° |
| 2026-04-26 05:35 | 33.93951 | -118.39297 | 107 ft | 19 kts | 83° |
| 2026-04-26 05:36 | 33.93967 | -118.39139 | 109 ft | 19 kts | 83° |
| 2026-04-26 05:36 | 33.93983 | -118.38980 | 106 ft | 19 kts | 83° |
| 2026-04-26 05:36 | 33.93998 | -118.38824 | 109 ft | 19 kts | 83° |
| 2026-04-26 05:36 | 33.94015 | -118.38666 | 107 ft | 19 kts | 83° |
| 2026-04-26 05:37 | 33.94031 | -118.38507 | 108 ft | 19 kts | 83° |
| 2026-04-26 05:37 | 33.94047 | -118.38349 | 108 ft | 19 kts | 83° |
| 2026-04-26 05:37 | 33.94063 | -118.38191 | 108 ft | 19 kts | 83° |
| 2026-04-26 05:37 | 33.94076 | -118.38071 | 107 ft | 11 kts | 83° |
| 2026-04-26 05:38 | 33.94076 | -118.38052 | 107 ft | 0 kts | 93° |
| 2026-04-26 05:38 | 33.94070 | -118.38027 | 108 ft | 10 kts | 111° |
| 2026-04-26 05:39 | 33.94010 | -118.37995 | 113 ft | 10 kts | 177° |
| 2026-04-26 05:39 | 33.93987 | -118.38013 | 112 ft | 3 kts | 251° |
| 2026-04-26 05:39 | 33.93985 | -118.38030 | 112 ft | 0 kts | 263° |
| 2026-04-26 05:41 | 33.93982 | -118.38055 | 113 ft | 16 kts | 263° |
| 2026-04-26 05:41 | 33.93929 | -118.38575 | 114 ft | 109 kts | 263° |
| 2026-04-26 05:41 | 33.93802 | -118.39839 | 119 ft | 193 kts | 261° |
| 2026-04-26 05:42 | 33.93623 | -118.41554 | 971 ft | 205 kts | 263° |
| 2026-04-26 05:42 | 33.93443 | -118.43301 | 2042 ft | 209 kts | 263° |
| 2026-04-26 05:42 | 33.93263 | -118.45035 | 2753 ft | 209 kts | 260° |
| 2026-04-26 05:42 | 33.92664 | -118.46690 | 2963 ft | 230 kts | 232° |
| 2026-04-26 05:43 | 33.91606 | -118.48229 | 3298 ft | 246 kts | 233° |
| 2026-04-26 05:43 | 33.90533 | -118.49848 | 4010 ft | 250 kts | 232° |
| 2026-04-26 05:43 | 33.89427 | -118.51434 | 4807 ft | 251 kts | 232° |
| 2026-04-26 05:43 | 33.88299 | -118.53035 | 5602 ft | 253 kts | 232° |
| 2026-04-26 05:44 | 33.87154 | -118.54635 | 6006 ft | 254 kts | 226° |
| 2026-04-26 05:44 | 33.85637 | -118.55772 | 5987 ft | 265 kts | 197° |
| 2026-04-26 05:44 | 33.83794 | -118.55902 | 6485 ft | 269 kts | 175° |
| 2026-04-26 05:44 | 33.81950 | -118.55444 | 7229 ft | 271 kts | 171° |
| 2026-04-26 05:45 | 33.80103 | -118.54926 | 7925 ft | 274 kts | 171° |
| 2026-04-26 05:45 | 33.78238 | -118.54402 | 8648 ft | 276 kts | 171° |
| 2026-04-26 05:45 | 33.76366 | -118.53886 | 9400 ft | 277 kts | 171° |
| 2026-04-26 05:45 | 33.74485 | -118.53373 | 10103 ft | 279 kts | 172° |
| 2026-04-26 05:46 | 33.72554 | -118.52853 | 10491 ft | 293 kts | 172° |
| 2026-04-26 05:46 | 33.70575 | -118.51982 | 10585 ft | 319 kts | 149° |
| 2026-04-26 05:46 | 33.69023 | -118.49993 | 10758 ft | 349 kts | 121° |
| 2026-04-26 05:46 | 33.68113 | -118.47196 | 10916 ft | 370 kts | 110° |
| 2026-04-26 05:47 | 33.67310 | -118.44182 | 11237 ft | 386 kts | 110° |
| 2026-04-26 05:47 | 33.66449 | -118.41080 | 11755 ft | 396 kts | 111° |
| 2026-04-26 05:47 | 33.65533 | -118.37930 | 12387 ft | 403 kts | 112° |
| 2026-04-26 05:47 | 33.64619 | -118.34742 | 13089 ft | 404 kts | 108° |
| 2026-04-26 05:48 | 33.64245 | -118.31370 | 13557 ft | 415 kts | 90° |
| 2026-04-26 05:48 | 33.64399 | -118.27883 | 14087 ft | 422 kts | 89° |
| 2026-04-26 05:48 | 33.64479 | -118.24387 | 14722 ft | 426 kts | 91° |
| 2026-04-26 05:48 | 33.64678 | -118.20846 | 15220 ft | 430 kts | 78° |
| 2026-04-26 05:49 | 33.65830 | -118.17522 | 15648 ft | 437 kts | 55° |
| 2026-04-26 05:49 | 33.70235 | -118.12585 | 16856 ft | 438 kts | 33° |
| 2026-04-26 05:49 | 33.72726 | -118.10425 | 17432 ft | 444 kts | 32° |
| 2026-04-26 05:50 | 33.75240 | -118.08244 | 18025 ft | 449 kts | 32° |
| 2026-04-26 05:50 | 33.77780 | -118.06015 | 18617 ft | 453 kts | 33° |
| 2026-04-26 05:50 | 33.80326 | -118.03752 | 19166 ft | 458 kts | 33° |
| 2026-04-26 05:50 | 33.82887 | -118.01456 | 19704 ft | 462 kts | 33° |
| 2026-04-26 05:51 | 33.85476 | -117.99125 | 20275 ft | 466 kts | 33° |
| 2026-04-26 05:51 | 33.88049 | -117.96806 | 20862 ft | 469 kts | 33° |
| 2026-04-26 05:51 | 33.90670 | -117.94445 | 21471 ft | 472 kts | 33° |
| 2026-04-26 05:51 | 33.93305 | -117.92052 | 21977 ft | 477 kts | 33° |
| 2026-04-26 05:52 | 33.95954 | -117.89627 | 22460 ft | 482 kts | 33° |
| 2026-04-26 05:52 | 33.98631 | -117.87174 | 22930 ft | 486 kts | 33° |
| 2026-04-26 05:52 | 34.01328 | -117.84704 | 23439 ft | 490 kts | 33° |
| 2026-04-26 05:52 | 34.04048 | -117.82213 | 23864 ft | 493 kts | 33° |
| 2026-04-26 05:53 | 34.06789 | -117.79702 | 24277 ft | 497 kts | 33° |
| 2026-04-26 05:53 | 34.09507 | -117.77105 | 24700 ft | 501 kts | 39° |
| 2026-04-26 05:53 | 34.11896 | -117.74003 | 25039 ft | 509 kts | 49° |
| 2026-04-26 05:53 | 34.14053 | -117.70666 | 25430 ft | 513 kts | 51° |
| 2026-04-26 05:54 | 34.16210 | -117.67226 | 25813 ft | 516 kts | 51° |
| 2026-04-26 05:54 | 34.18406 | -117.63778 | 26223 ft | 519 kts | 50° |
| 2026-04-26 05:54 | 34.20644 | -117.60358 | 26675 ft | 520 kts | 49° |
| 2026-04-26 05:54 | 34.22920 | -117.56953 | 27090 ft | 522 kts | 49° |
| 2026-04-26 05:55 | 34.25227 | -117.53547 | 27354 ft | 527 kts | 48° |
| 2026-04-26 05:55 | 34.27554 | -117.50099 | 27619 ft | 531 kts | 49° |
| 2026-04-26 05:55 | 34.29885 | -117.46621 | 27984 ft | 532 kts | 49° |
| 2026-04-26 05:55 | 34.32213 | -117.43139 | 28380 ft | 534 kts | 49° |
| 2026-04-26 05:56 | 34.34553 | -117.39641 | 28722 ft | 536 kts | 49° |
| 2026-04-26 05:56 | 34.36871 | -117.36174 | 28999 ft | 539 kts | 49° |
| 2026-04-26 05:56 | 34.39232 | -117.32638 | 29255 ft | 542 kts | 49° |
| 2026-04-26 05:56 | 34.41604 | -117.29082 | 29526 ft | 543 kts | 49° |
| 2026-04-26 05:57 | 34.43976 | -117.25521 | 29917 ft | 543 kts | 49° |
| 2026-04-26 05:57 | 34.46340 | -117.21969 | 30318 ft | 541 kts | 49° |
| 2026-04-26 05:57 | 34.48700 | -117.18418 | 30600 ft | 541 kts | 50° |
| 2026-04-26 05:57 | 34.51059 | -117.14868 | 30919 ft | 540 kts | 50° |
| 2026-04-26 05:58 | 34.53405 | -117.11333 | 31320 ft | 537 kts | 50° |
| 2026-04-26 05:58 | 34.55758 | -117.07805 | 31626 ft | 537 kts | 50° |
| 2026-04-26 05:58 | 34.58143 | -117.04311 | 31922 ft | 537 kts | 49° |
| 2026-04-26 05:58 | 34.60543 | -117.00837 | 32188 ft | 538 kts | 49° |
| 2026-04-26 05:59 | 34.62837 | -116.97525 | 32405 ft | 538 kts | 49° |
| 2026-04-26 05:59 | 34.65242 | -116.94043 | 32670 ft | 539 kts | 49° |
| 2026-04-26 05:59 | 34.67651 | -116.90538 | 32791 ft | 542 kts | 49° |
| 2026-04-26 06:00 | 34.72482 | -116.83475 | 32866 ft | 544 kts | 49° |
| 2026-04-26 06:00 | 34.77311 | -116.76393 | 32845 ft | 543 kts | 50° |
| 2026-04-26 06:01 | 34.82090 | -116.69366 | 32973 ft | 542 kts | 50° |
| 2026-04-26 06:01 | 34.84488 | -116.65840 | 33357 ft | 539 kts | 50° |
| 2026-04-26 06:01 | 34.86888 | -116.62344 | 33602 ft | 540 kts | 49° |
| 2026-04-26 06:01 | 34.89384 | -116.58916 | 33771 ft | 541 kts | 47° |
| 2026-04-26 06:02 | 34.91937 | -116.55543 | 33996 ft | 542 kts | 46° |